sensor_id;sensor_type;location;lat;lon;timestamp;P1;durP1;ratioP1;P2;durP2;ratioP2
70213;SDS011;60138;55.808;37.078;2022-09-09T00:04:26;10.15;;;6.88;;
70213;SDS011;60138;55.808;37.078;2022-09-09T00:09:36;12.20;;;7.68;;
70213;SDS011;60138;55.808;37.078;2022-09-09T00:12:11;9.82;;;7.47;;
70213;SDS011;60138;55.808;37.078;2022-09-09T00:17:38;9.88;;;7.57;;
70213;SDS011;60138;55.808;37.078;2022-09-09T00:22:59;13.20;;;7.50;;
70213;SDS011;60138;55.808;37.078;2022-09-09T00:25:42;11.15;;;7.15;;
70213;SDS011;60138;55.808;37.078;2022-09-09T00:28:23;11.37;;;7.43;;
70213;SDS011;60138;55.808;37.078;2022-09-09T00:30:51;10.95;;;6.70;;
70213;SDS011;60138;55.808;37.078;2022-09-09T00:33:17;9.98;;;6.70;;
70213;SDS011;60138;55.808;37.078;2022-09-09T00:35:48;9.95;;;6.82;;
70213;SDS011;60138;55.808;37.078;2022-09-09T00:38:20;8.13;;;5.83;;
70213;SDS011;60138;55.808;37.078;2022-09-09T00:40:53;11.10;;;7.13;;
70213;SDS011;60138;55.808;37.078;2022-09-09T00:43:31;9.68;;;7.20;;
70213;SDS011;60138;55.808;37.078;2022-09-09T00:51:15;11.67;;;6.30;;
70213;SDS011;60138;55.808;37.078;2022-09-09T00:56:42;9.43;;;7.38;;
70213;SDS011;60138;55.808;37.078;2022-09-09T01:01:53;8.02;;;6.55;;
70213;SDS011;60138;55.808;37.078;2022-09-09T01:04:21;9.67;;;6.20;;
70213;SDS011;60138;55.808;37.078;2022-09-09T01:06:56;7.30;;;5.97;;
70213;SDS011;60138;55.808;37.078;2022-09-09T01:12:27;9.10;;;5.73;;
70213;SDS011;60138;55.808;37.078;2022-09-09T01:18:21;8.27;;;5.65;;
70213;SDS011;60138;55.808;37.078;2022-09-09T01:20:39;7.70;;;5.43;;
70213;SDS011;60138;55.808;37.078;2022-09-09T01:26:30;7.40;;;5.37;;
70213;SDS011;60138;55.808;37.078;2022-09-09T01:29:12;9.93;;;6.00;;
70213;SDS011;60138;55.808;37.078;2022-09-09T01:34:26;7.93;;;6.20;;
70213;SDS011;60138;55.808;37.078;2022-09-09T01:37:07;8.25;;;5.95;;
70213;SDS011;60138;55.808;37.078;2022-09-09T01:39:37;8.27;;;5.07;;
70213;SDS011;60138;55.808;37.078;2022-09-09T01:42:10;7.75;;;4.97;;
70213;SDS011;60138;55.808;37.078;2022-09-09T01:44:39;6.90;;;5.15;;
70213;SDS011;60138;55.808;37.078;2022-09-09T01:47:05;7.22;;;5.20;;
70213;SDS011;60138;55.808;37.078;2022-09-09T01:49:33;9.30;;;5.45;;
70213;SDS011;60138;55.808;37.078;2022-09-09T01:52:05;9.47;;;5.10;;
70213;SDS011;60138;55.808;37.078;2022-09-09T01:54:35;9.13;;;5.90;;
70213;SDS011;60138;55.808;37.078;2022-09-09T01:57:19;9.07;;;5.47;;
70213;SDS011;60138;55.808;37.078;2022-09-09T01:59:54;7.10;;;4.75;;
70213;SDS011;60138;55.808;37.078;2022-09-09T02:02:29;6.05;;;4.82;;
70213;SDS011;60138;55.808;37.078;2022-09-09T02:08:07;6.25;;;4.97;;
70213;SDS011;60138;55.808;37.078;2022-09-09T02:10:56;6.50;;;5.05;;
70213;SDS011;60138;55.808;37.078;2022-09-09T02:14:10;6.63;;;4.93;;
70213;SDS011;60138;55.808;37.078;2022-09-09T02:16:48;6.88;;;4.85;;
70213;SDS011;60138;55.808;37.078;2022-09-09T02:19:24;6.27;;;4.10;;
70213;SDS011;60138;55.808;37.078;2022-09-09T02:22:12;7.60;;;5.00;;
70213;SDS011;60138;55.808;37.078;2022-09-09T02:24:39;7.78;;;4.30;;
70213;SDS011;60138;55.808;37.078;2022-09-09T02:27:13;8.20;;;5.05;;
70213;SDS011;60138;55.808;37.078;2022-09-09T02:29:41;6.22;;;5.22;;
70213;SDS011;60138;55.808;37.078;2022-09-09T02:32:20;8.53;;;4.93;;
70213;SDS011;60138;55.808;37.078;2022-09-09T02:34:53;6.13;;;5.53;;
70213;SDS011;60138;55.808;37.078;2022-09-09T02:37:22;7.70;;;5.45;;
70213;SDS011;60138;55.808;37.078;2022-09-09T02:39:53;6.75;;;5.28;;
70213;SDS011;60138;55.808;37.078;2022-09-09T02:42:21;7.57;;;4.80;;
70213;SDS011;60138;55.808;37.078;2022-09-09T02:44:47;8.07;;;5.07;;
70213;SDS011;60138;55.808;37.078;2022-09-09T02:58:05;12.83;;;5.70;;
70213;SDS011;60138;55.808;37.078;2022-09-09T03:00:34;9.25;;;5.55;;
70213;SDS011;60138;55.808;37.078;2022-09-09T03:03:02;8.15;;;5.97;;
70213;SDS011;60138;55.808;37.078;2022-09-09T03:05:30;9.15;;;5.78;;
70213;SDS011;60138;55.808;37.078;2022-09-09T03:07:57;6.05;;;5.30;;
70213;SDS011;60138;55.808;37.078;2022-09-09T03:10:23;8.17;;;5.77;;
70213;SDS011;60138;55.808;37.078;2022-09-09T03:12:49;6.35;;;5.72;;
70213;SDS011;60138;55.808;37.078;2022-09-09T03:15:15;7.22;;;6.07;;
70213;SDS011;60138;55.808;37.078;2022-09-09T03:17:42;6.75;;;4.95;;
70213;SDS011;60138;55.808;37.078;2022-09-09T03:20:08;7.78;;;6.13;;
70213;SDS011;60138;55.808;37.078;2022-09-09T03:22:36;11.50;;;5.70;;
70213;SDS011;60138;55.808;37.078;2022-09-09T03:25:02;6.40;;;5.13;;
70213;SDS011;60138;55.808;37.078;2022-09-09T03:27:29;10.95;;;5.90;;
70213;SDS011;60138;55.808;37.078;2022-09-09T03:29:56;8.13;;;5.80;;
70213;SDS011;60138;55.808;37.078;2022-09-09T03:32:23;7.40;;;5.57;;
70213;SDS011;60138;55.808;37.078;2022-09-09T03:34:49;8.32;;;5.93;;
70213;SDS011;60138;55.808;37.078;2022-09-09T03:37:16;8.05;;;6.10;;
70213;SDS011;60138;55.808;37.078;2022-09-09T03:39:41;6.93;;;5.75;;
70213;SDS011;60138;55.808;37.078;2022-09-09T03:42:08;8.37;;;6.13;;
70213;SDS011;60138;55.808;37.078;2022-09-09T03:44:37;7.38;;;5.30;;
70213;SDS011;60138;55.808;37.078;2022-09-09T03:47:02;9.73;;;6.03;;
70213;SDS011;60138;55.808;37.078;2022-09-09T03:49:28;9.53;;;5.63;;
70213;SDS011;60138;55.808;37.078;2022-09-09T03:51:55;6.45;;;5.13;;
70213;SDS011;60138;55.808;37.078;2022-09-09T03:54:22;7.00;;;5.50;;
70213;SDS011;60138;55.808;37.078;2022-09-09T03:56:49;7.22;;;5.43;;
70213;SDS011;60138;55.808;37.078;2022-09-09T03:59:14;8.10;;;5.50;;
70213;SDS011;60138;55.808;37.078;2022-09-09T04:01:41;8.75;;;5.65;;
70213;SDS011;60138;55.808;37.078;2022-09-09T04:04:07;9.73;;;6.15;;
70213;SDS011;60138;55.808;37.078;2022-09-09T04:06:33;6.38;;;5.22;;
70213;SDS011;60138;55.808;37.078;2022-09-09T04:09:00;9.83;;;5.40;;
70213;SDS011;60138;55.808;37.078;2022-09-09T04:11:25;7.35;;;6.10;;
70213;SDS011;60138;55.808;37.078;2022-09-09T04:13:53;9.95;;;5.28;;
70213;SDS011;60138;55.808;37.078;2022-09-09T04:16:19;9.13;;;6.07;;
70213;SDS011;60138;55.808;37.078;2022-09-09T04:18:45;7.10;;;5.60;;
70213;SDS011;60138;55.808;37.078;2022-09-09T04:21:13;8.90;;;5.20;;
70213;SDS011;60138;55.808;37.078;2022-09-09T04:23:39;5.30;;;4.30;;
70213;SDS011;60138;55.808;37.078;2022-09-09T04:26:05;6.53;;;5.13;;
70213;SDS011;60138;55.808;37.078;2022-09-09T04:28:33;6.93;;;6.00;;
70213;SDS011;60138;55.808;37.078;2022-09-09T04:31:10;8.50;;;6.03;;
70213;SDS011;60138;55.808;37.078;2022-09-09T04:33:40;9.57;;;5.40;;
70213;SDS011;60138;55.808;37.078;2022-09-09T04:36:07;7.13;;;5.75;;
70213;SDS011;60138;55.808;37.078;2022-09-09T04:38:33;8.40;;;5.80;;
70213;SDS011;60138;55.808;37.078;2022-09-09T04:41:00;6.82;;;4.95;;
70213;SDS011;60138;55.808;37.078;2022-09-09T04:43:25;6.80;;;5.03;;
70213;SDS011;60138;55.808;37.078;2022-09-09T04:45:51;7.53;;;4.90;;
70213;SDS011;60138;55.808;37.078;2022-09-09T04:48:21;8.23;;;5.07;;
70213;SDS011;60138;55.808;37.078;2022-09-09T04:50:56;7.63;;;4.95;;
70213;SDS011;60138;55.808;37.078;2022-09-09T04:53:28;6.53;;;5.20;;
70213;SDS011;60138;55.808;37.078;2022-09-09T04:56:07;5.77;;;4.53;;
70213;SDS011;60138;55.808;37.078;2022-09-09T04:58:39;4.80;;;4.18;;
70213;SDS011;60138;55.808;37.078;2022-09-09T05:01:10;5.45;;;4.63;;
70213;SDS011;60138;55.808;37.078;2022-09-09T05:03:43;5.43;;;4.43;;
70213;SDS011;60138;55.808;37.078;2022-09-09T05:06:13;4.53;;;3.97;;
70213;SDS011;60138;55.808;37.078;2022-09-09T05:08:41;6.18;;;4.40;;
70213;SDS011;60138;55.808;37.078;2022-09-09T05:11:25;5.47;;;4.22;;
70213;SDS011;60138;55.808;37.078;2022-09-09T05:13:56;5.05;;;4.15;;
70213;SDS011;60138;55.808;37.078;2022-09-09T05:16:22;5.10;;;4.00;;
70213;SDS011;60138;55.808;37.078;2022-09-09T05:18:48;4.43;;;3.40;;
70213;SDS011;60138;55.808;37.078;2022-09-09T05:21:14;4.38;;;3.47;;
70213;SDS011;60138;55.808;37.078;2022-09-09T05:23:41;5.45;;;3.80;;
70213;SDS011;60138;55.808;37.078;2022-09-09T05:26:07;5.13;;;4.00;;
70213;SDS011;60138;55.808;37.078;2022-09-09T05:28:37;4.03;;;3.55;;
70213;SDS011;60138;55.808;37.078;2022-09-09T05:31:04;4.13;;;3.27;;
70213;SDS011;60138;55.808;37.078;2022-09-09T05:33:33;7.43;;;3.92;;
70213;SDS011;60138;55.808;37.078;2022-09-09T05:36:02;5.40;;;3.67;;
70213;SDS011;60138;55.808;37.078;2022-09-09T05:38:38;3.65;;;3.10;;
70213;SDS011;60138;55.808;37.078;2022-09-09T05:41:06;3.97;;;3.15;;
70213;SDS011;60138;55.808;37.078;2022-09-09T05:43:33;4.50;;;3.03;;
70213;SDS011;60138;55.808;37.078;2022-09-09T05:46:03;8.63;;;4.05;;
70213;SDS011;60138;55.808;37.078;2022-09-09T05:48:32;3.70;;;2.60;;
70213;SDS011;60138;55.808;37.078;2022-09-09T05:51:01;4.97;;;2.55;;
70213;SDS011;60138;55.808;37.078;2022-09-09T05:53:27;6.00;;;3.00;;
70213;SDS011;60138;55.808;37.078;2022-09-09T05:56:00;4.70;;;2.63;;
70213;SDS011;60138;55.808;37.078;2022-09-09T05:58:27;3.90;;;3.33;;
70213;SDS011;60138;55.808;37.078;2022-09-09T06:00:59;6.63;;;3.85;;
70213;SDS011;60138;55.808;37.078;2022-09-09T06:03:26;5.88;;;3.92;;
70213;SDS011;60138;55.808;37.078;2022-09-09T06:06:02;5.77;;;3.80;;
70213;SDS011;60138;55.808;37.078;2022-09-09T06:08:29;7.45;;;3.35;;
70213;SDS011;60138;55.808;37.078;2022-09-09T06:11:00;4.78;;;3.15;;
70213;SDS011;60138;55.808;37.078;2022-09-09T06:13:28;5.03;;;2.80;;
70213;SDS011;60138;55.808;37.078;2022-09-09T06:15:54;4.30;;;3.00;;
70213;SDS011;60138;55.808;37.078;2022-09-09T06:18:20;3.53;;;2.92;;
70213;SDS011;60138;55.808;37.078;2022-09-09T06:20:55;4.18;;;3.05;;
70213;SDS011;60138;55.808;37.078;2022-09-09T06:23:28;3.80;;;2.65;;
70213;SDS011;60138;55.808;37.078;2022-09-09T06:26:01;3.30;;;2.40;;
70213;SDS011;60138;55.808;37.078;2022-09-09T06:28:49;6.47;;;2.65;;
70213;SDS011;60138;55.808;37.078;2022-09-09T06:31:16;2.95;;;2.65;;
70213;SDS011;60138;55.808;37.078;2022-09-09T06:33:43;2.57;;;2.10;;
70213;SDS011;60138;55.808;37.078;2022-09-09T06:36:12;2.70;;;2.42;;
70213;SDS011;60138;55.808;37.078;2022-09-09T06:38:39;3.63;;;2.63;;
70213;SDS011;60138;55.808;37.078;2022-09-09T06:41:05;5.38;;;3.22;;
70213;SDS011;60138;55.808;37.078;2022-09-09T06:43:31;3.60;;;2.33;;
70213;SDS011;60138;55.808;37.078;2022-09-09T06:46:00;7.80;;;2.55;;
70213;SDS011;60138;55.808;37.078;2022-09-09T06:48:26;4.82;;;1.88;;
70213;SDS011;60138;55.808;37.078;2022-09-09T06:53:31;2.53;;;2.33;;
70213;SDS011;60138;55.808;37.078;2022-09-09T06:56:01;2.58;;;2.33;;
70213;SDS011;60138;55.808;37.078;2022-09-09T06:58:37;2.95;;;1.80;;
70213;SDS011;60138;55.808;37.078;2022-09-09T07:01:06;2.63;;;2.08;;
70213;SDS011;60138;55.808;37.078;2022-09-09T07:03:33;4.35;;;2.78;;
70213;SDS011;60138;55.808;37.078;2022-09-09T07:06:00;3.37;;;2.30;;
70213;SDS011;60138;55.808;37.078;2022-09-09T07:08:27;2.55;;;1.95;;
70213;SDS011;60138;55.808;37.078;2022-09-09T07:10:54;3.00;;;1.95;;
70213;SDS011;60138;55.808;37.078;2022-09-09T07:13:23;3.25;;;2.28;;
70213;SDS011;60138;55.808;37.078;2022-09-09T07:15:51;4.77;;;1.90;;
70213;SDS011;60138;55.808;37.078;2022-09-09T07:18:17;3.83;;;2.42;;
70213;SDS011;60138;55.808;37.078;2022-09-09T07:20:52;2.15;;;1.60;;
70213;SDS011;60138;55.808;37.078;2022-09-09T07:23:18;3.92;;;2.22;;
70213;SDS011;60138;55.808;37.078;2022-09-09T07:25:44;4.10;;;2.47;;
70213;SDS011;60138;55.808;37.078;2022-09-09T07:28:11;3.53;;;2.15;;
70213;SDS011;60138;55.808;37.078;2022-09-09T07:30:36;3.45;;;1.85;;
70213;SDS011;60138;55.808;37.078;2022-09-09T07:33:02;2.00;;;1.73;;
70213;SDS011;60138;55.808;37.078;2022-09-09T07:35:28;2.25;;;1.90;;
70213;SDS011;60138;55.808;37.078;2022-09-09T07:37:54;2.50;;;2.27;;
70213;SDS011;60138;55.808;37.078;2022-09-09T07:40:20;3.08;;;2.47;;
70213;SDS011;60138;55.808;37.078;2022-09-09T07:42:46;2.55;;;2.10;;
70213;SDS011;60138;55.808;37.078;2022-09-09T07:45:11;3.67;;;1.77;;
70213;SDS011;60138;55.808;37.078;2022-09-09T07:47:37;4.20;;;2.15;;
70213;SDS011;60138;55.808;37.078;2022-09-09T07:50:03;4.67;;;2.50;;
70213;SDS011;60138;55.808;37.078;2022-09-09T07:52:30;1.92;;;1.63;;
70213;SDS011;60138;55.808;37.078;2022-09-09T07:54:59;2.08;;;1.75;;
70213;SDS011;60138;55.808;37.078;2022-09-09T07:57:26;2.22;;;2.03;;
70213;SDS011;60138;55.808;37.078;2022-09-09T07:59:53;2.88;;;2.58;;
70213;SDS011;60138;55.808;37.078;2022-09-09T08:02:19;3.07;;;1.93;;
70213;SDS011;60138;55.808;37.078;2022-09-09T08:04:44;3.70;;;1.73;;
70213;SDS011;60138;55.808;37.078;2022-09-09T08:07:10;2.60;;;1.90;;
70213;SDS011;60138;55.808;37.078;2022-09-09T08:09:43;2.20;;;1.77;;
70213;SDS011;60138;55.808;37.078;2022-09-09T08:12:18;2.28;;;2.05;;
70213;SDS011;60138;55.808;37.078;2022-09-09T08:14:44;2.58;;;1.63;;
70213;SDS011;60138;55.808;37.078;2022-09-09T08:17:10;2.58;;;2.38;;
70213;SDS011;60138;55.808;37.078;2022-09-09T08:19:36;2.90;;;1.60;;
70213;SDS011;60138;55.808;37.078;2022-09-09T08:22:06;2.77;;;2.07;;
70213;SDS011;60138;55.808;37.078;2022-09-09T08:24:33;1.85;;;1.65;;
70213;SDS011;60138;55.808;37.078;2022-09-09T08:26:59;2.28;;;2.00;;
70213;SDS011;60138;55.808;37.078;2022-09-09T08:29:26;2.40;;;2.20;;
70213;SDS011;60138;55.808;37.078;2022-09-09T08:31:53;2.28;;;1.77;;
70213;SDS011;60138;55.808;37.078;2022-09-09T08:34:21;2.10;;;1.20;;
70213;SDS011;60138;55.808;37.078;2022-09-09T08:36:49;2.35;;;1.70;;
70213;SDS011;60138;55.808;37.078;2022-09-09T08:39:20;2.75;;;1.80;;
70213;SDS011;60138;55.808;37.078;2022-09-09T08:44:40;2.05;;;1.45;;
70213;SDS011;60138;55.808;37.078;2022-09-09T08:57:46;2.45;;;1.48;;
70213;SDS011;60138;55.808;37.078;2022-09-09T09:00:15;4.20;;;1.77;;
70213;SDS011;60138;55.808;37.078;2022-09-09T09:02:46;2.80;;;2.00;;
70213;SDS011;60138;55.808;37.078;2022-09-09T09:05:36;3.50;;;3.17;;
70213;SDS011;60138;55.808;37.078;2022-09-09T09:10:47;1.90;;;1.20;;
70213;SDS011;60138;55.808;37.078;2022-09-09T09:13:38;1.98;;;1.48;;
70213;SDS011;60138;55.808;37.078;2022-09-09T09:18:40;4.03;;;1.65;;
70213;SDS011;60138;55.808;37.078;2022-09-09T09:21:19;2.47;;;1.50;;
70213;SDS011;60138;55.808;37.078;2022-09-09T09:24:00;4.65;;;1.52;;
70213;SDS011;60138;55.808;37.078;2022-09-09T09:26:33;3.50;;;1.60;;
70213;SDS011;60138;55.808;37.078;2022-09-09T09:29:08;2.05;;;1.45;;
70213;SDS011;60138;55.808;37.078;2022-09-09T09:31:37;3.03;;;1.98;;
70213;SDS011;60138;55.808;37.078;2022-09-09T09:34:03;2.63;;;1.70;;
70213;SDS011;60138;55.808;37.078;2022-09-09T09:37:15;3.67;;;2.50;;
70213;SDS011;60138;55.808;37.078;2022-09-09T09:39:25;2.83;;;2.25;;
70213;SDS011;60138;55.808;37.078;2022-09-09T09:41:58;2.63;;;1.50;;
70213;SDS011;60138;55.808;37.078;2022-09-09T09:44:37;2.95;;;2.45;;
70213;SDS011;60138;55.808;37.078;2022-09-09T09:47:22;9.57;;;2.40;;
70213;SDS011;60138;55.808;37.078;2022-09-09T09:49:56;8.07;;;1.88;;
70213;SDS011;60138;55.808;37.078;2022-09-09T09:52:24;7.20;;;2.40;;
70213;SDS011;60138;55.808;37.078;2022-09-09T09:54:56;7.10;;;2.50;;
70213;SDS011;60138;55.808;37.078;2022-09-09T09:57:27;3.05;;;2.33;;
70213;SDS011;60138;55.808;37.078;2022-09-09T10:03:00;1.48;;;1.25;;
70213;SDS011;60138;55.808;37.078;2022-09-09T10:05:30;3.25;;;1.60;;
70213;SDS011;60138;55.808;37.078;2022-09-09T10:16:22;7.60;;;4.57;;
70213;SDS011;60138;55.808;37.078;2022-09-09T10:30:00;2.40;;;1.55;;
70213;SDS011;60138;55.808;37.078;2022-09-09T10:38:39;6.28;;;3.53;;
70213;SDS011;60138;55.808;37.078;2022-09-09T10:43:59;2.10;;;1.40;;
70213;SDS011;60138;55.808;37.078;2022-09-09T10:52:31;3.55;;;1.63;;
70213;SDS011;60138;55.808;37.078;2022-09-09T10:57:50;2.58;;;1.50;;
70213;SDS011;60138;55.808;37.078;2022-09-09T11:02:42;2.67;;;2.03;;
70213;SDS011;60138;55.808;37.078;2022-09-09T11:05:17;4.28;;;2.50;;
70213;SDS011;60138;55.808;37.078;2022-09-09T11:07:48;2.47;;;2.03;;
70213;SDS011;60138;55.808;37.078;2022-09-09T11:10:34;1.83;;;1.40;;
70213;SDS011;60138;55.808;37.078;2022-09-09T11:13:09;2.45;;;1.30;;
70213;SDS011;60138;55.808;37.078;2022-09-09T11:15:45;1.63;;;1.33;;
70213;SDS011;60138;55.808;37.078;2022-09-09T11:18:21;2.97;;;1.50;;
70213;SDS011;60138;55.808;37.078;2022-09-09T11:20:49;2.20;;;1.50;;
70213;SDS011;60138;55.808;37.078;2022-09-09T11:23:24;2.13;;;1.30;;
70213;SDS011;60138;55.808;37.078;2022-09-09T11:26:03;2.67;;;1.50;;
70213;SDS011;60138;55.808;37.078;2022-09-09T11:34:17;2.50;;;1.75;;
70213;SDS011;60138;55.808;37.078;2022-09-09T11:40:21;1.58;;;1.30;;
70213;SDS011;60138;55.808;37.078;2022-09-09T11:42:49;3.42;;;1.90;;
70213;SDS011;60138;55.808;37.078;2022-09-09T11:45:26;2.92;;;1.38;;
70213;SDS011;60138;55.808;37.078;2022-09-09T11:47:54;2.80;;;1.48;;
70213;SDS011;60138;55.808;37.078;2022-09-09T11:52:49;1.70;;;1.05;;
70213;SDS011;60138;55.808;37.078;2022-09-09T11:55:29;5.53;;;2.10;;
70213;SDS011;60138;55.808;37.078;2022-09-09T11:57:57;4.25;;;2.03;;
70213;SDS011;60138;55.808;37.078;2022-09-09T12:03:06;4.35;;;2.03;;
70213;SDS011;60138;55.808;37.078;2022-09-09T12:05:51;4.50;;;2.45;;
70213;SDS011;60138;55.808;37.078;2022-09-09T12:08:20;4.10;;;2.30;;
70213;SDS011;60138;55.808;37.078;2022-09-09T12:10:59;5.88;;;2.67;;
70213;SDS011;60138;55.808;37.078;2022-09-09T12:13:25;7.75;;;2.50;;
70213;SDS011;60138;55.808;37.078;2022-09-09T12:15:53;5.07;;;1.85;;
70213;SDS011;60138;55.808;37.078;2022-09-09T12:18:31;2.55;;;1.20;;
70213;SDS011;60138;55.808;37.078;2022-09-09T12:37:29;3.08;;;1.60;;
70213;SDS011;60138;55.808;37.078;2022-09-09T12:42:32;4.35;;;1.83;;
70213;SDS011;60138;55.808;37.078;2022-09-09T12:45:02;4.03;;;1.42;;
70213;SDS011;60138;55.808;37.078;2022-09-09T12:48:01;2.22;;;1.20;;
70213;SDS011;60138;55.808;37.078;2022-09-09T12:50:32;3.80;;;1.42;;
70213;SDS011;60138;55.808;37.078;2022-09-09T12:53:47;1.67;;;0.80;;
70213;SDS011;60138;55.808;37.078;2022-09-09T12:56:06;2.65;;;1.23;;
70213;SDS011;60138;55.808;37.078;2022-09-09T12:58:33;2.50;;;1.23;;
70213;SDS011;60138;55.808;37.078;2022-09-09T13:01:02;2.72;;;0.95;;
70213;SDS011;60138;55.808;37.078;2022-09-09T13:03:29;1.40;;;1.00;;
70213;SDS011;60138;55.808;37.078;2022-09-09T13:06:09;2.20;;;0.90;;
70213;SDS011;60138;55.808;37.078;2022-09-09T13:08:37;2.35;;;1.10;;
70213;SDS011;60138;55.808;37.078;2022-09-09T13:11:04;2.58;;;1.10;;
70213;SDS011;60138;55.808;37.078;2022-09-09T13:13:35;6.25;;;2.00;;
70213;SDS011;60138;55.808;37.078;2022-09-09T13:16:03;2.60;;;1.05;;
70213;SDS011;60138;55.808;37.078;2022-09-09T13:18:31;2.73;;;1.30;;
70213;SDS011;60138;55.808;37.078;2022-09-09T13:21:02;5.80;;;2.40;;
70213;SDS011;60138;55.808;37.078;2022-09-09T13:23:32;12.90;;;3.90;;
70213;SDS011;60138;55.808;37.078;2022-09-09T13:26:00;9.98;;;3.63;;
70213;SDS011;60138;55.808;37.078;2022-09-09T13:28:29;4.15;;;1.80;;
70213;SDS011;60138;55.808;37.078;2022-09-09T13:30:56;2.97;;;1.63;;
70213;SDS011;60138;55.808;37.078;2022-09-09T13:33:30;3.15;;;1.83;;
70213;SDS011;60138;55.808;37.078;2022-09-09T13:36:07;4.97;;;2.05;;
70213;SDS011;60138;55.808;37.078;2022-09-09T13:38:38;3.63;;;1.60;;
70213;SDS011;60138;55.808;37.078;2022-09-09T13:41:21;2.87;;;1.90;;
70213;SDS011;60138;55.808;37.078;2022-09-09T13:43:49;2.70;;;1.60;;
70213;SDS011;60138;55.808;37.078;2022-09-09T13:46:33;2.42;;;1.35;;
70213;SDS011;60138;55.808;37.078;2022-09-09T13:49:01;3.92;;;1.70;;
70213;SDS011;60138;55.808;37.078;2022-09-09T13:51:40;5.72;;;2.42;;
70213;SDS011;60138;55.808;37.078;2022-09-09T13:54:09;3.33;;;1.97;;
70213;SDS011;60138;55.808;37.078;2022-09-09T13:56:38;4.47;;;1.77;;
70213;SDS011;60138;55.808;37.078;2022-09-09T13:59:05;4.03;;;2.00;;
70213;SDS011;60138;55.808;37.078;2022-09-09T14:01:34;1.85;;;1.50;;
70213;SDS011;60138;55.808;37.078;2022-09-09T14:04:00;4.40;;;2.30;;
70213;SDS011;60138;55.808;37.078;2022-09-09T14:06:25;2.42;;;1.65;;
70213;SDS011;60138;55.808;37.078;2022-09-09T14:08:51;3.03;;;2.08;;
70213;SDS011;60138;55.808;37.078;2022-09-09T14:11:17;4.33;;;1.90;;
70213;SDS011;60138;55.808;37.078;2022-09-09T14:13:43;6.22;;;2.08;;
70213;SDS011;60138;55.808;37.078;2022-09-09T14:16:09;4.70;;;2.13;;
70213;SDS011;60138;55.808;37.078;2022-09-09T14:18:35;5.67;;;2.10;;
70213;SDS011;60138;55.808;37.078;2022-09-09T14:21:02;2.50;;;1.80;;
70213;SDS011;60138;55.808;37.078;2022-09-09T14:23:27;3.20;;;2.22;;
70213;SDS011;60138;55.808;37.078;2022-09-09T14:25:53;3.33;;;1.90;;
70213;SDS011;60138;55.808;37.078;2022-09-09T14:28:19;3.75;;;2.20;;
70213;SDS011;60138;55.808;37.078;2022-09-09T14:30:44;6.63;;;2.30;;
70213;SDS011;60138;55.808;37.078;2022-09-09T14:33:11;3.20;;;2.03;;
70213;SDS011;60138;55.808;37.078;2022-09-09T14:35:37;4.63;;;1.90;;
70213;SDS011;60138;55.808;37.078;2022-09-09T14:38:04;5.00;;;2.15;;
70213;SDS011;60138;55.808;37.078;2022-09-09T14:40:30;4.72;;;1.98;;
70213;SDS011;60138;55.808;37.078;2022-09-09T14:42:56;4.03;;;2.78;;
70213;SDS011;60138;55.808;37.078;2022-09-09T14:45:22;6.85;;;2.60;;
70213;SDS011;60138;55.808;37.078;2022-09-09T14:47:49;5.47;;;2.90;;
70213;SDS011;60138;55.808;37.078;2022-09-09T14:50:15;11.87;;;5.83;;
70213;SDS011;60138;55.808;37.078;2022-09-09T14:52:40;7.40;;;3.90;;
70213;SDS011;60138;55.808;37.078;2022-09-09T14:55:07;10.30;;;4.40;;
70213;SDS011;60138;55.808;37.078;2022-09-09T14:57:33;13.03;;;6.07;;
70213;SDS011;60138;55.808;37.078;2022-09-09T14:59:59;23.55;;;13.80;;
70213;SDS011;60138;55.808;37.078;2022-09-09T15:02:24;7.07;;;3.47;;
70213;SDS011;60138;55.808;37.078;2022-09-09T15:04:50;8.13;;;3.65;;
70213;SDS011;60138;55.808;37.078;2022-09-09T15:07:16;10.13;;;3.10;;
70213;SDS011;60138;55.808;37.078;2022-09-09T15:09:41;4.75;;;2.97;;
70213;SDS011;60138;55.808;37.078;2022-09-09T15:12:07;6.47;;;3.63;;
70213;SDS011;60138;55.808;37.078;2022-09-09T15:14:33;43.85;;;23.65;;
70213;SDS011;60138;55.808;37.078;2022-09-09T15:16:59;49.60;;;26.60;;
70213;SDS011;60138;55.808;37.078;2022-09-09T15:19:24;33.95;;;19.20;;
70213;SDS011;60138;55.808;37.078;2022-09-09T15:21:50;34.70;;;21.83;;
70213;SDS011;60138;55.808;37.078;2022-09-09T15:24:16;23.88;;;17.30;;
70213;SDS011;60138;55.808;37.078;2022-09-09T15:26:41;9.37;;;5.83;;
70213;SDS011;60138;55.808;37.078;2022-09-09T15:29:07;8.53;;;4.90;;
70213;SDS011;60138;55.808;37.078;2022-09-09T15:31:33;6.13;;;3.45;;
70213;SDS011;60138;55.808;37.078;2022-09-09T15:34:03;34.60;;;18.98;;
70213;SDS011;60138;55.808;37.078;2022-09-09T15:36:31;40.05;;;24.52;;
70213;SDS011;60138;55.808;37.078;2022-09-09T15:39:06;33.00;;;21.95;;
70213;SDS011;60138;55.808;37.078;2022-09-09T15:41:33;11.50;;;5.27;;
70213;SDS011;60138;55.808;37.078;2022-09-09T15:43:59;8.30;;;4.68;;
70213;SDS011;60138;55.808;37.078;2022-09-09T15:46:27;11.55;;;6.88;;
70213;SDS011;60138;55.808;37.078;2022-09-09T15:48:54;10.65;;;4.85;;
70213;SDS011;60138;55.808;37.078;2022-09-09T15:51:21;18.50;;;12.25;;
70213;SDS011;60138;55.808;37.078;2022-09-09T15:53:47;23.83;;;12.60;;
70213;SDS011;60138;55.808;37.078;2022-09-09T15:56:13;19.00;;;12.75;;
70213;SDS011;60138;55.808;37.078;2022-09-09T15:58:38;19.33;;;11.57;;
70213;SDS011;60138;55.808;37.078;2022-09-09T16:01:04;12.98;;;8.05;;
70213;SDS011;60138;55.808;37.078;2022-09-09T16:03:38;11.50;;;6.13;;
70213;SDS011;60138;55.808;37.078;2022-09-09T16:06:08;13.47;;;7.03;;
70213;SDS011;60138;55.808;37.078;2022-09-09T16:08:35;12.30;;;6.80;;
70213;SDS011;60138;55.808;37.078;2022-09-09T16:11:13;16.58;;;8.55;;
70213;SDS011;60138;55.808;37.078;2022-09-09T16:13:41;11.13;;;6.43;;
70213;SDS011;60138;55.808;37.078;2022-09-09T16:16:09;12.82;;;7.05;;
70213;SDS011;60138;55.808;37.078;2022-09-09T16:18:37;11.37;;;6.03;;
70213;SDS011;60138;55.808;37.078;2022-09-09T16:21:07;12.32;;;5.53;;
70213;SDS011;60138;55.808;37.078;2022-09-09T16:23:37;11.43;;;7.05;;
70213;SDS011;60138;55.808;37.078;2022-09-09T16:26:03;19.47;;;7.00;;
70213;SDS011;60138;55.808;37.078;2022-09-09T16:28:29;16.23;;;7.22;;
70213;SDS011;60138;55.808;37.078;2022-09-09T16:30:55;14.15;;;7.65;;
70213;SDS011;60138;55.808;37.078;2022-09-09T16:33:20;19.95;;;9.38;;
70213;SDS011;60138;55.808;37.078;2022-09-09T16:35:46;23.73;;;8.70;;
70213;SDS011;60138;55.808;37.078;2022-09-09T16:38:12;22.63;;;10.20;;
70213;SDS011;60138;55.808;37.078;2022-09-09T16:40:38;19.47;;;9.70;;
70213;SDS011;60138;55.808;37.078;2022-09-09T16:43:04;28.13;;;10.60;;
70213;SDS011;60138;55.808;37.078;2022-09-09T16:45:30;23.77;;;13.60;;
70213;SDS011;60138;55.808;37.078;2022-09-09T16:47:55;22.17;;;11.07;;
70213;SDS011;60138;55.808;37.078;2022-09-09T16:50:21;26.13;;;9.73;;
70213;SDS011;60138;55.808;37.078;2022-09-09T16:52:46;26.30;;;10.30;;
70213;SDS011;60138;55.808;37.078;2022-09-09T16:55:12;21.45;;;9.48;;
70213;SDS011;60138;55.808;37.078;2022-09-09T16:57:38;27.87;;;9.70;;
70213;SDS011;60138;55.808;37.078;2022-09-09T17:00:04;33.40;;;10.43;;
70213;SDS011;60138;55.808;37.078;2022-09-09T17:02:30;19.95;;;8.90;;
70213;SDS011;60138;55.808;37.078;2022-09-09T17:04:56;23.48;;;9.38;;
70213;SDS011;60138;55.808;37.078;2022-09-09T17:07:21;22.13;;;8.83;;
70213;SDS011;60138;55.808;37.078;2022-09-09T17:09:47;20.00;;;8.18;;
70213;SDS011;60138;55.808;37.078;2022-09-09T17:12:13;17.80;;;8.35;;